Swift Ace — C6XB8 — position and weather

sailwx.info

Track history (hours):
 
Tides and Currents Weather Stations Pressure Air Temp Water Temp Dewpoint Dewpoint Depression Visibility Wind Speed Wind Dir Waves Ship Positions

Swift Ace

Last reported at 2014-Jul-15 22:20 UTC. Time now 2014-Jul-24 02:20 UTC.
Position N 36°30' E 142°44'.
Warning: this ship's position is 8 days out of date.

Length 200 m; draft 9.1 m.

Type: Cargo ship. MMSI: 311004900.

Date/timePositionNaut miles runAvg speedWind from/ knotsBaromVisibWave heightAir tempDewpointWater temp
2014-Jul-15 22:20N 36°30' E 142°44'1215.4
2014-Jul-15 21:34N 36°22' E 142°32'1615.8
2014-Jul-15 20:34N 36°12' E 142°17'1716.8
2014-Jul-15 19:32N 36°02' E 142°00'1717.8
2014-Jul-15 18:34N 35°51' E 141°43'1717.1
2014-Jul-15 17:33N 35°40' E 141°27'1616.5
2014-Jul-15 16:33N 35°30' E 141°11'1716.8
2014-Jul-15 15:34N 35°19' E 140°56'1717.0
2014-Jul-15 14:33N 35°09' E 140°39'1716.7
2014-Jul-15 13:33N 34°60' E 140°22'1615.7
2014-Jul-15 12:34N 34°53' E 140°05'1414.5
2014-Jul-15 11:34N 34°51' E 139°47'1313.5
2014-Jul-15 10:34N 35°04' E 139°43'1212.2
2014-Jul-15 09:33N 35°16' E 139°46'1010.3
2014-Jul-15 08:33N 35°25' E 139°41'0 0.3
2014-Jul-15 07:31N 35°25' E 139°41'0 0.0
2014-Jul-15 06:31N 35°25' E 139°41'0 0.0
2014-Jul-15 05:31N 35°25' E 139°41'0 0.0
2014-Jul-15 04:31N 35°25' E 139°41'0 0.0
2014-Jul-15 03:31N 35°25' E 139°41'0 0.0
2014-Jul-15 02:31N 35°25' E 139°41'0 0.0
2014-Jul-15 01:31N 35°25' E 139°41'0 0.0
2014-Jul-15 00:31N 35°25' E 139°41'0 0.0
2014-Jul-14 23:31N 35°25' E 139°41'0 0.0
2014-Jul-14 22:31N 35°25' E 139°41'3 3.5
2014-Jul-14 21:34N 35°23' E 139°43'1110.6
2014-Jul-14 20:33N 35°12' E 139°47'1110.8
2014-Jul-14 19:33N 35°02' E 139°43'1212.1
2014-Jul-14 18:33N 34°51' E 139°37'  
2014-Jul-07 16:33N 34°41' E 139°34'1717.2
2014-Jul-07 15:33N 34°58' E 139°40'1514.8
2014-Jul-07 14:33N 35°12' E 139°46'1111.3
2014-Jul-07 13:33N 35°23' E 139°42'5 4.5
2014-Jul-07 12:31N 35°27' E 139°41'0 0.0
2014-Jul-07 11:31N 35°27' E 139°41'0 0.0
2014-Jul-07 10:31N 35°27' E 139°41'0 0.0
2014-Jul-07 09:31N 35°27' E 139°41'1 0.7
2014-Jul-07 08:33N 35°27' E 139°41'2 1.5
2014-Jul-07 07:31N 35°25' E 139°41'0 0.0
2014-Jul-07 06:31N 35°25' E 139°41'0 0.0
2014-Jul-07 05:31N 35°25' E 139°41'0 0.0
2014-Jul-07 04:31N 35°25' E 139°41'0 0.0
2014-Jul-07 03:31N 35°25' E 139°41'0 0.0
2014-Jul-07 02:31N 35°25' E 139°41'0 0.0
2014-Jul-07 01:24N 35°25' E 139°41'0 0.0
2014-Jul-07 00:33N 35°25' E 139°41'0 0.0
2014-Jul-06 23:33N 35°25' E 139°41'0 0.0
2014-Jul-06 22:33N 35°25' E 139°41'3 3.0
2014-Jul-06 21:33N 35°23' E 139°43'1111.4
2014-Jul-06 20:33N 35°12' E 139°47'1110.6
2014-Jul-06 19:33N 35°02' E 139°43'1212.0
2014-Jul-06 18:33N 34°51' E 139°37'1312.6
2014-Jul-06 17:31N 34°40' E 139°29'  
Track history (hours):
 
Tides and Currents Weather Stations Pressure Air Temp Water Temp Dewpoint Dewpoint Depression Visibility Wind Speed Wind Dir Waves Ship Positions

Swift Ace

Last reported at 2014-Jul-15 22:20 UTC. Time now 2014-Jul-24 02:20 UTC.
Position N 36°30' E 142°44'.
Warning: this ship's position is 8 days out of date.

Length 200 m; draft 9.1 m.

Type: Cargo ship. MMSI: 311004900.

Date/timePositionNaut miles runAvg speedWind from/ knotsBaromVisibWave heightAir tempDewpointWater temp
2014-Jul-15 22:20N 36°30' E 142°44'1215.4
2014-Jul-15 21:34N 36°22' E 142°32'1615.8
2014-Jul-15 20:34N 36°12' E 142°17'1716.8
2014-Jul-15 19:32N 36°02' E 142°00'1717.8
2014-Jul-15 18:34N 35°51' E 141°43'1717.1
2014-Jul-15 17:33N 35°40' E 141°27'1616.5
2014-Jul-15 16:33N 35°30' E 141°11'1716.8
2014-Jul-15 15:34N 35°19' E 140°56'1717.0
2014-Jul-15 14:33N 35°09' E 140°39'1716.7
2014-Jul-15 13:33N 34°60' E 140°22'1615.7
2014-Jul-15 12:34N 34°53' E 140°05'1414.5
2014-Jul-15 11:34N 34°51' E 139°47'1313.5
2014-Jul-15 10:34N 35°04' E 139°43'1212.2
2014-Jul-15 09:33N 35°16' E 139°46'1010.3
2014-Jul-15 08:33N 35°25' E 139°41'0 0.3
2014-Jul-15 07:31N 35°25' E 139°41'0 0.0
2014-Jul-15 06:31N 35°25' E 139°41'0 0.0
2014-Jul-15 05:31N 35°25' E 139°41'0 0.0
2014-Jul-15 04:31N 35°25' E 139°41'0 0.0
2014-Jul-15 03:31N 35°25' E 139°41'0 0.0
2014-Jul-15 02:31N 35°25' E 139°41'0 0.0
2014-Jul-15 01:31N 35°25' E 139°41'0 0.0
2014-Jul-15 00:31N 35°25' E 139°41'0 0.0
2014-Jul-14 23:31N 35°25' E 139°41'0 0.0
2014-Jul-14 22:31N 35°25' E 139°41'3 3.5
2014-Jul-14 21:34N 35°23' E 139°43'1110.6
2014-Jul-14 20:33N 35°12' E 139°47'1110.8
2014-Jul-14 19:33N 35°02' E 139°43'1212.1
2014-Jul-14 18:33N 34°51' E 139°37'  
2014-Jul-07 16:33N 34°41' E 139°34'1717.2
2014-Jul-07 15:33N 34°58' E 139°40'1514.8
2014-Jul-07 14:33N 35°12' E 139°46'1111.3
2014-Jul-07 13:33N 35°23' E 139°42'5 4.5
2014-Jul-07 12:31N 35°27' E 139°41'0 0.0
2014-Jul-07 11:31N 35°27' E 139°41'0 0.0
2014-Jul-07 10:31N 35°27' E 139°41'0 0.0
2014-Jul-07 09:31N 35°27' E 139°41'1 0.7
2014-Jul-07 08:33N 35°27' E 139°41'2 1.5
2014-Jul-07 07:31N 35°25' E 139°41'0 0.0
2014-Jul-07 06:31N 35°25' E 139°41'0 0.0
2014-Jul-07 05:31N 35°25' E 139°41'0 0.0
2014-Jul-07 04:31N 35°25' E 139°41'0 0.0
2014-Jul-07 03:31N 35°25' E 139°41'0 0.0
2014-Jul-07 02:31N 35°25' E 139°41'0 0.0
2014-Jul-07 01:24N 35°25' E 139°41'0 0.0
2014-Jul-07 00:33N 35°25' E 139°41'0 0.0
2014-Jul-06 23:33N 35°25' E 139°41'0 0.0
2014-Jul-06 22:33N 35°25' E 139°41'3 3.0
2014-Jul-06 21:33N 35°23' E 139°43'1111.4
2014-Jul-06 20:33N 35°12' E 139°47'1110.6
2014-Jul-06 19:33N 35°02' E 139°43'1212.0
2014-Jul-06 18:33N 34°51' E 139°37'1312.6
2014-Jul-06 17:31N 34°40' E 139°29'  

Dump ship's entire track history